ADDS METAR Data INFO
IDs: Format: Raw Decoded Include TAF

Data at: 0847 UTC 27 Jun 2017

KDTO 270753Z AUTO 14003KT 10SM FEW075 23/21 A3003 RMK AO2 SLP159 T02330211
KDTO 270653Z AUTO 15004KT 10SM CLR 23/22 A3004 RMK AO2 SLP162 T02280217
KDTO 270553Z AUTO 15003KT 10SM CLR 23/22 A3005 RMK AO2 SLP167 T02330217 10289 20233 403000217 51008
KDTO 270453Z AUTO 14004KT 10SM CLR 24/22 A3005 RMK AO2 SLP166 T02390217
KDTO 270353Z AUTO 08004KT 10SM OVC041 26/22 A3004 RMK AO2 SLP165 T02610217
KDTO 270253Z 10005KT 10SM CLR 27/21 A3003 RMK AO2 SLP159 T02670206 51006
KDTO 270153Z 10004KT 10SM CLR 27/21 A3002 RMK AO2 SLP158 T02720206
KDTO 270053Z 12004KT 10SM CLR 28/21 A3002 RMK AO2 SLP156 T02830211
KDTO 262353Z 12006KT 10SM CLR 29/21 A3001 RMK AO2 SLP153 T02890206 10300 20261 56017
KDTO 262253Z 13004KT 10SM CLR 29/21 A3002 RMK AO2 SLP157 T02890206 $
KDTO 262153Z 11005KT 10SM FEW038 29/21 A3003 RMK AO2 SLP161 T02890211 $
KDTO 262053Z VRB05KT 10SM SCT028 BKN050 29/22 A3006 RMK AO2 SLP170 T02890217 $
KDTO 262045Z 13004KT 10SM SCT028 BKN050 28/22 A3006 RMK AO2 T02830217 $
KDTO 261953Z 08004KT 10SM SCT028 BKN050 28/22 A3008 RMK AO2 SLP178 T02780217 $
KDTO 261926Z 11006KT 10SM FEW026 BKN037 OVC050 28/22 A3010 RMK AO2 T02780217 $
KDTO 261853Z 10SM FEW025 BKN031 27/22 A3012 RMK AO2 SLP190 T02720217 $
KDTO 261826Z VRB05KT 10SM SCT021 BKN032 27/22 A3012 RMK AO2 T02670217 $
KDTO 261753Z VRB05KT 10SM BKN021 27/22 A3014 RMK AO2 SLP197 T02670217 10272 20228 56013 $
KDTO 261746Z VRB04KT 10SM BKN021 27/22 A3013 RMK AO2 T02670222 $
KDTO 261653Z 08006KT 10SM CLR 26/21 A3015 RMK AO2 SLP201 T02610206 $
KDTO 261632Z 13008KT 10SM SCT026 25/21 A3016 RMK AO2 T02500211 $
KDTO 261610Z 13006KT 10SM BKN026 24/21 A3016 RMK AO2 T02440206 $
KDTO 261553Z 11008KT 10SM FEW018 FEW030 24/21 A3016 RMK AO2 SLP205 T02440206 $
KDTO 261546Z 11007KT 10SM SCT018 SCT030 24/21 A3016 RMK AO2 T02440206 $
KDTO 261516Z 15007KT 10SM OVC019 23/20 A3017 RMK AO2 LTG DSNT SE T02330200 $
KDTO 261501Z 16007KT 10SM VCTS OVC020 24/20 A3017 RMK AO2 T02390200 $
KDTO 261453Z 14007KT 10SM OVC021 24/19 A3018 RMK AO2 SLP210 T02390194 51009 $
KDTO 261432Z 14007KT 10SM VCTS OVC021 24/19 A3018 RMK AO2 T02390194 $
KDTO 261417Z 10005KT 10SM BKN021 24/19 A3018 RMK AO2 T02390194 $
KDTO 261403Z 11005KT 10SM FEW022 BKN030 24/19 A3018 RMK AO2 T02440194 $
KDTO 261353Z 12005KT 10SM FEW022 BKN029 24/19 A3018 RMK AO2 SLP210 T02390189 $
KDTO 261339Z 12006KT 10SM BKN029 24/19 A3018 RMK AO2 T02390189 $
KDTO 261253Z 11007KT 10SM BKN033 23/18 A3016 RMK AO2 SLP204 T02330178 $
KDTO 261153Z 11003KT 10SM CLR 22/18 A3015 RMK AO2 SLP201 T02220183 10239 20217 53002 $
KDTO 261053Z 13005KT 10SM CLR 22/18 A3014 RMK AO2 SLP197 T02220183 $
KDTO 260953Z AUTO 13003KT 10SM CLR 23/18 A3013 RMK AO2 SLP194 T02280183 $
KDTO 260853Z AUTO 11006KT 10SM OVC050 23/18 A3014 RMK AO2 SLP197 T02330183 58008 $
KDTO 260753Z AUTO 11005KT 10SM OVC047 23/18 A3015 RMK AO2 SLP199 T02330183 $
KDTO 260653Z AUTO 15004KT 10SM FEW044 22/18 A3017 RMK AO2 SLP208 T02220183 $
KDTO 260553Z AUTO 12007KT 10SM CLR 24/17 A3016 RMK AO2 SLP206 T02390172 10289 20228 403000194 51007 $
KDTO 260453Z AUTO 13005KT 10SM CLR 23/17 A3016 RMK AO2 SLP204 T02280172 $
KDTO 260353Z AUTO 11006KT 10SM CLR 25/16 A3016 RMK AO2 SLP206 T02500156 $
KDTO 260253Z 10005KT 10SM CLR 26/16 A3014 RMK AO2 SLP199 T02560156 53013 $
KDTO 260153Z 12005KT 10SM CLR 26/16 A3013 RMK AO2 SLP196 T02610161 $
KDTO 260053Z 11008KT 10SM CLR 28/18 A3011 RMK AO2 SLP189 T02780178 $
KDTO 252353Z 10006KT 10SM CLR 29/18 A3011 RMK AO2 SLP186 T02890178 10300 20278 56020 $
KDTO 252253Z 12007KT 10SM CLR 29/18 A3011 RMK AO2 SLP189 T02940178 $
KDTO 252153Z 11010KT 10SM CLR 30/18 A3015 RMK AO2 SLP201 T03000178 $
KDTO 252053Z 10008KT 10SM CLR 29/17 A3017 RMK AO2 SLP207 T02940172 56020 $


Page loaded:  08:47 UTC  |   01:47 AM Pacific  |   02:47 AM Mountain  |   03:47 AM Central  |   04:47 AM Eastern

 

ADVISORIES

FORECASTS

FORECASTS

OBSERVATIONS

USER TOOLS

ABOUT US